createdAt,value
2017-11-12T00:00:30.889Z,0
2017-11-12T00:01:39.522Z,0
2017-11-12T00:02:48.135Z,0
2017-11-12T00:03:56.753Z,0
2017-11-12T00:05:05.377Z,0
2017-11-12T00:06:14.000Z,0
2017-11-12T00:07:22.613Z,0
2017-11-12T00:08:31.237Z,0
2017-11-12T00:09:39.858Z,0
2017-11-12T00:10:48.470Z,0
2017-11-12T00:11:57.097Z,0
2017-11-12T00:13:05.716Z,0
2017-11-12T00:14:14.335Z,0
2017-11-12T00:15:22.963Z,0
2017-11-12T00:16:31.584Z,0
2017-11-12T00:17:40.197Z,0
2017-11-12T00:18:48.822Z,0
2017-11-12T00:19:57.437Z,0
2017-11-12T00:21:06.059Z,0
2017-11-12T00:22:15.028Z,0
2017-11-12T00:23:23.644Z,0
2017-11-12T00:24:32.259Z,0
2017-11-12T00:25:40.885Z,0
2017-11-12T00:26:49.506Z,0
2017-11-12T00:27:58.125Z,0
2017-11-12T00:29:06.749Z,0
2017-11-12T00:30:15.362Z,0
2017-11-12T00:31:23.984Z,0
2017-11-12T00:32:32.599Z,0
2017-11-12T00:33:41.216Z,0
2017-11-12T00:34:49.844Z,0
2017-11-12T00:35:58.463Z,0
2017-11-12T00:37:07.086Z,0
2017-11-12T00:38:15.707Z,0
2017-11-12T00:39:24.326Z,0
2017-11-12T00:40:32.944Z,0
2017-11-12T00:41:41.565Z,0
2017-11-12T00:42:50.188Z,0
2017-11-12T00:43:58.805Z,0
2017-11-12T00:45:07.425Z,0
2017-11-12T00:46:16.047Z,0
2017-11-12T00:47:24.718Z,0
2017-11-12T00:48:33.295Z,0
2017-11-12T00:49:41.912Z,0
2017-11-12T00:50:50.533Z,0
2017-11-12T00:51:59.149Z,0
2017-11-12T00:53:07.775Z,0
2017-11-12T00:54:16.393Z,0
2017-11-12T00:55:25.020Z,0
2017-11-12T00:56:33.635Z,0
2017-11-12T00:57:42.255Z,0
2017-11-12T00:58:50.873Z,0
2017-11-12T00:59:59.823Z,0
2017-11-12T01:01:08.439Z,0
2017-11-12T01:02:17.067Z,0
2017-11-12T01:03:25.683Z,0
2017-11-12T01:04:34.301Z,0
2017-11-12T01:05:42.931Z,0
2017-11-12T01:06:51.548Z,0
2017-11-12T01:08:00.166Z,0
2017-11-12T01:09:08.788Z,0
2017-11-12T01:10:17.411Z,0
2017-11-12T01:11:26.693Z,0
2017-11-12T01:12:35.311Z,0
2017-11-12T01:13:43.931Z,0
2017-11-12T01:14:52.556Z,0
2017-11-12T01:16:01.175Z,0
2017-11-12T01:17:09.794Z,0
2017-11-12T01:18:18.418Z,0
2017-11-12T01:19:27.040Z,0
2017-11-12T01:20:35.652Z,0
2017-11-12T01:21:44.272Z,0
2017-11-12T01:22:52.898Z,0
2017-11-12T01:24:01.515Z,0
2017-11-12T01:25:10.136Z,0
2017-11-12T01:26:18.767Z,0
2017-11-12T01:27:27.375Z,0
2017-11-12T01:28:36.000Z,0
2017-11-12T01:29:44.613Z,0
2017-11-12T01:30:53.236Z,0
2017-11-12T01:32:01.859Z,0
2017-11-12T01:33:10.471Z,0
2017-11-12T01:34:19.090Z,0
2017-11-12T01:35:27.715Z,0
2017-11-12T01:36:36.335Z,0
2017-11-12T01:37:44.950Z,0
2017-11-12T01:38:53.577Z,0
2017-11-12T01:40:02.528Z,0
2017-11-12T01:41:11.146Z,0
2017-11-12T01:42:19.777Z,0
2017-11-12T01:43:28.722Z,0
2017-11-12T01:44:37.340Z,0
2017-11-12T01:45:45.956Z,0
2017-11-12T01:46:54.580Z,0
2017-11-12T01:48:03.199Z,0
2017-11-12T01:49:11.815Z,0
2017-11-12T01:50:20.434Z,0
2017-11-12T01:51:29.386Z,0
2017-11-12T01:52:38.346Z,0
2017-11-12T01:53:46.962Z,0
2017-11-12T01:54:55.581Z,0
2017-11-12T01:56:04.200Z,0
2017-11-12T01:57:12.828Z,0
2017-11-12T01:58:21.439Z,0
2017-11-12T01:59:30.060Z,0
2017-11-12T02:00:38.677Z,0
2017-11-12T02:01:47.298Z,0
2017-11-12T02:02:55.929Z,0
2017-11-12T02:04:04.543Z,0
2017-11-12T02:05:13.160Z,0
2017-11-12T02:06:21.785Z,0
2017-11-12T02:07:30.401Z,0
2017-11-12T02:08:39.017Z,0
2017-11-12T02:09:47.647Z,0
2017-11-12T02:10:56.265Z,0
2017-11-12T02:12:04.883Z,0
2017-11-12T02:13:13.501Z,0
2017-11-12T02:14:22.116Z,0
2017-11-12T02:15:30.743Z,0
2017-11-12T02:16:39.361Z,0
2017-11-12T02:17:47.981Z,0
2017-11-12T02:18:56.611Z,0
2017-11-12T02:20:05.221Z,0
2017-11-12T02:21:13.842Z,0
2017-11-12T02:22:22.462Z,0
2017-11-12T02:23:31.411Z,0
2017-11-12T02:24:40.370Z,0
2017-11-12T02:25:48.991Z,0
2017-11-12T02:26:57.614Z,0
2017-11-12T02:28:06.228Z,0
2017-11-12T02:29:14.848Z,0
2017-11-12T02:30:23.474Z,0
2017-11-12T02:31:32.087Z,0
2017-11-12T02:32:40.707Z,0
2017-11-12T02:33:49.336Z,0
2017-11-12T02:34:57.957Z,0
2017-11-12T02:36:06.576Z,0
2017-11-12T02:37:15.196Z,0
2017-11-12T02:38:23.819Z,0
2017-11-12T02:39:32.436Z,0
2017-11-12T02:40:41.387Z,0
2017-11-12T02:41:50.331Z,0
2017-11-12T02:42:58.954Z,0
2017-11-12T02:44:07.574Z,0
2017-11-12T02:45:16.191Z,0
2017-11-12T02:46:24.818Z,0
2017-11-12T02:47:33.436Z,0
2017-11-12T02:48:42.055Z,0
2017-11-12T02:49:50.680Z,0
2017-11-12T02:50:59.294Z,0
2017-11-12T02:52:08.263Z,0
2017-11-12T02:53:16.877Z,0
2017-11-12T02:54:25.497Z,0
2017-11-12T02:55:34.466Z,0
2017-11-12T02:56:43.081Z,0
2017-11-12T02:57:51.699Z,0
2017-11-12T02:59:00.317Z,0
2017-11-12T03:00:08.938Z,0
2017-11-12T03:01:17.897Z,0
2017-11-12T03:02:26.519Z,0
2017-11-12T03:03:35.137Z,0
2017-11-12T03:04:43.762Z,0
2017-11-12T03:05:52.380Z,0
2017-11-12T03:07:01.005Z,0
2017-11-12T03:08:09.624Z,0
2017-11-12T03:09:18.246Z,0
2017-11-12T03:10:26.856Z,0
2017-11-12T03:11:35.477Z,0
2017-11-12T03:12:44.102Z,0
2017-11-12T03:13:52.737Z,0
2017-11-12T03:15:01.393Z,0
2017-11-12T03:16:09.977Z,0
2017-11-12T03:17:18.931Z,0
2017-11-12T03:18:27.885Z,0
2017-11-12T03:19:36.499Z,0
2017-11-12T03:20:45.121Z,0
2017-11-12T03:21:53.744Z,0
2017-11-12T03:23:02.356Z,0
2017-11-12T03:24:10.978Z,0
2017-11-12T03:25:19.600Z,0
2017-11-12T03:26:28.221Z,0
2017-11-12T03:27:36.843Z,0
2017-11-12T03:28:45.466Z,0
2017-11-12T03:29:54.087Z,0
2017-11-12T03:31:02.707Z,0
2017-11-12T03:32:11.319Z,0
2017-11-12T03:33:19.943Z,0
2017-11-12T03:34:28.564Z,0
2017-11-12T03:35:37.180Z,0
2017-11-12T03:36:45.799Z,0
2017-11-12T03:37:54.424Z,0
2017-11-12T03:39:03.043Z,0
2017-11-12T03:40:11.663Z,0
2017-11-12T03:41:20.282Z,0
2017-11-12T03:42:28.904Z,0
2017-11-12T03:43:37.856Z,0
2017-11-12T03:44:46.471Z,0
2017-11-12T03:45:55.088Z,0
2017-11-12T03:47:03.715Z,0
2017-11-12T03:48:12.329Z,0
2017-11-12T03:49:20.966Z,0
2017-11-12T03:50:29.560Z,0
2017-11-12T03:51:38.183Z,0
2017-11-12T03:52:46.804Z,0
2017-11-12T03:53:55.422Z,0
2017-11-12T03:55:04.049Z,0
2017-11-12T03:56:12.669Z,0
2017-11-12T03:57:21.293Z,0
2017-11-12T03:58:29.916Z,0
2017-11-12T03:59:38.865Z,0
2017-11-12T04:00:47.485Z,0
2017-11-12T04:01:56.109Z,0
2017-11-12T04:03:04.734Z,0
2017-11-12T04:04:13.342Z,0
2017-11-12T04:05:21.965Z,0
2017-11-12T04:06:30.585Z,0
2017-11-12T04:07:39.203Z,0
2017-11-12T04:08:47.829Z,0
2017-11-12T04:09:56.450Z,0
2017-11-12T04:11:05.066Z,0
2017-11-12T04:12:13.684Z,0
2017-11-12T04:13:22.300Z,0
2017-11-12T04:14:30.926Z,0
2017-11-12T04:15:39.542Z,0
2017-11-12T04:16:48.156Z,0
2017-11-12T04:17:56.784Z,0
2017-11-12T04:19:05.403Z,0
2017-11-12T04:20:14.020Z,0
2017-11-12T04:21:22.645Z,0
2017-11-12T04:22:31.270Z,0
2017-11-12T04:23:39.883Z,0
2017-11-12T04:24:48.502Z,0
2017-11-12T04:25:57.120Z,0
2017-11-12T04:27:05.749Z,0
2017-11-12T04:28:14.374Z,0
2017-11-12T04:29:22.993Z,0
2017-11-12T04:30:31.615Z,0
2017-11-12T04:31:40.234Z,0
2017-11-12T04:32:48.844Z,0
2017-11-12T04:33:57.475Z,0
2017-11-12T04:35:06.093Z,0
2017-11-12T04:36:15.041Z,0
2017-11-12T04:37:23.996Z,0
2017-11-12T04:38:32.615Z,0
2017-11-12T04:39:41.237Z,0
2017-11-12T04:40:49.862Z,0
2017-11-12T04:41:58.473Z,0
2017-11-12T04:43:07.096Z,0
2017-11-12T04:44:15.716Z,0
2017-11-12T04:45:24.327Z,0
2017-11-12T04:46:32.958Z,0
2017-11-12T04:47:41.577Z,0
2017-11-12T04:48:50.197Z,0
2017-11-12T04:49:58.822Z,0
2017-11-12T04:51:07.433Z,0
2017-11-12T04:52:16.056Z,0
2017-11-12T04:53:24.672Z,0
2017-11-12T04:54:33.298Z,0
2017-11-12T04:55:41.918Z,0
2017-11-12T04:56:50.536Z,0
2017-11-12T04:57:59.157Z,0
2017-11-12T04:59:07.784Z,0
2017-11-12T05:00:16.395Z,0
2017-11-12T05:01:25.353Z,0
2017-11-12T05:02:33.979Z,0
2017-11-12T05:03:42.597Z,0
2017-11-12T05:04:51.230Z,0
2017-11-12T05:05:59.840Z,0
2017-11-12T05:07:08.454Z,0
2017-11-12T05:08:17.082Z,0
2017-11-12T05:09:25.694Z,0
2017-11-12T05:10:34.317Z,0
2017-11-12T05:11:42.934Z,0
2017-11-12T05:12:51.546Z,0
2017-11-12T05:14:00.164Z,0
2017-11-12T05:15:08.788Z,0
2017-11-12T05:16:17.410Z,0
2017-11-12T05:17:26.025Z,0
2017-11-12T05:18:34.654Z,0
2017-11-12T05:19:43.289Z,0
2017-11-12T05:20:52.235Z,0
2017-11-12T05:22:00.858Z,0
2017-11-12T05:23:09.471Z,0
2017-11-12T05:24:18.096Z,0
2017-11-12T05:25:26.717Z,0
2017-11-12T05:26:35.328Z,0
2017-11-12T05:27:43.952Z,0
2017-11-12T05:28:52.569Z,0
2017-11-12T05:30:01.187Z,0
2017-11-12T05:31:09.815Z,0
2017-11-12T05:32:18.431Z,0
2017-11-12T05:33:27.378Z,0
2017-11-12T05:34:35.997Z,0
2017-11-12T05:35:44.620Z,0
2017-11-12T05:36:53.566Z,0
2017-11-12T05:38:02.190Z,0
2017-11-12T05:39:10.812Z,0
2017-11-12T05:40:20.103Z,0
2017-11-12T05:41:28.719Z,0
2017-11-12T05:42:37.337Z,0
2017-11-12T05:43:45.962Z,0
2017-11-12T05:44:54.572Z,0
2017-11-12T05:46:03.200Z,0
2017-11-12T05:47:11.819Z,0
2017-11-12T05:48:20.459Z,0
2017-11-12T05:49:29.064Z,0
2017-11-12T05:50:37.679Z,0
2017-11-12T05:51:46.301Z,0
2017-11-12T05:52:55.245Z,0
2017-11-12T05:54:03.869Z,0
2017-11-12T05:55:12.487Z,0
2017-11-12T05:56:21.105Z,0
2017-11-12T05:57:29.725Z,0
2017-11-12T05:58:38.353Z,0
2017-11-12T05:59:46.969Z,0
2017-11-12T06:00:55.590Z,0
2017-11-12T06:02:04.211Z,0
2017-11-12T06:03:12.830Z,0
2017-11-12T06:04:21.444Z,0
2017-11-12T06:05:30.066Z,0
2017-11-12T06:06:38.684Z,0
2017-11-12T06:07:47.317Z,0
2017-11-12T06:08:55.935Z,0
2017-11-12T06:10:04.553Z,0
2017-11-12T06:11:13.176Z,0
2017-11-12T06:12:21.798Z,0
2017-11-12T06:13:30.410Z,0
2017-11-12T06:14:39.032Z,0
2017-11-12T06:15:47.650Z,0
2017-11-12T06:16:56.279Z,0
2017-11-12T06:18:04.897Z,0
2017-11-12T06:19:13.513Z,0
2017-11-12T06:20:22.136Z,0
2017-11-12T06:21:30.752Z,0
2017-11-12T06:22:39.376Z,0
2017-11-12T06:23:47.996Z,0
2017-11-12T06:24:56.945Z,0
2017-11-12T06:26:05.576Z,0
2017-11-12T06:27:14.189Z,0
2017-11-12T06:28:22.806Z,0
2017-11-12T06:29:31.430Z,0
2017-11-12T06:30:40.051Z,0
2017-11-12T06:31:48.661Z,0
2017-11-12T06:32:57.287Z,0
2017-11-12T06:34:06.241Z,0
2017-11-12T06:35:14.855Z,0
2017-11-12T06:36:23.482Z,0
2017-11-12T06:37:32.101Z,0
2017-11-12T06:38:41.053Z,0
2017-11-12T06:39:49.682Z,0
2017-11-12T06:40:58.289Z,0
2017-11-12T06:42:07.246Z,0
2017-11-12T06:43:15.862Z,0
2017-11-12T06:44:24.494Z,0
2017-11-12T06:45:33.116Z,0
2017-11-12T06:46:41.724Z,0
2017-11-12T06:47:50.348Z,0
2017-11-12T06:48:58.971Z,0
2017-11-12T06:50:07.583Z,0
2017-11-12T06:51:16.228Z,0
2017-11-12T06:52:24.826Z,0
2017-11-12T06:53:33.453Z,0
2017-11-12T06:54:42.071Z,0
2017-11-12T06:55:50.694Z,0
2017-11-12T06:56:59.308Z,0
2017-11-12T06:58:07.933Z,0
2017-11-12T06:59:16.912Z,0
2017-11-12T07:00:25.533Z,0
2017-11-12T07:01:34.160Z,0
2017-11-12T07:02:42.773Z,0
2017-11-12T07:03:51.398Z,0
2017-11-12T07:05:00.019Z,0
2017-11-12T07:06:08.644Z,5
2017-11-12T07:07:17.267Z,5
2017-11-12T07:08:25.883Z,5
2017-11-12T07:09:34.507Z,5
2017-11-12T07:10:43.130Z,5
2017-11-12T07:11:51.744Z,5
2017-11-12T07:13:00.366Z,5
2017-11-12T07:14:08.989Z,5
2017-11-12T07:15:17.608Z,5
2017-11-12T07:16:26.229Z,10
2017-11-12T07:17:34.856Z,10
2017-11-12T07:18:43.476Z,10
2017-11-12T07:19:52.096Z,10
2017-11-12T07:21:00.713Z,10
2017-11-12T07:22:09.333Z,10
2017-11-12T07:23:17.960Z,10
2017-11-12T07:24:26.584Z,10
2017-11-12T07:25:35.196Z,10
2017-11-12T07:26:43.826Z,15
2017-11-12T07:27:52.442Z,15
2017-11-12T07:29:01.062Z,15
2017-11-12T07:30:09.690Z,15
2017-11-12T07:31:18.309Z,15
2017-11-12T07:32:26.937Z,15
2017-11-12T07:33:35.549Z,15
2017-11-12T07:34:44.163Z,20
2017-11-12T07:35:52.789Z,15
2017-11-12T07:37:01.412Z,20
2017-11-12T07:38:10.028Z,20
2017-11-12T07:39:18.657Z,20
2017-11-12T07:40:27.273Z,15
2017-11-12T07:41:35.892Z,15
2017-11-12T07:42:44.511Z,20
2017-11-12T07:43:53.132Z,20
2017-11-12T07:45:01.760Z,20
2017-11-12T07:46:10.386Z,20
2017-11-12T07:47:19.006Z,15
2017-11-12T07:48:27.631Z,15
2017-11-12T07:49:36.245Z,15
2017-11-12T07:50:44.867Z,15
2017-11-12T07:51:53.483Z,15
2017-11-12T07:53:02.101Z,20
2017-11-12T07:54:10.733Z,25
2017-11-12T07:55:19.354Z,30
2017-11-12T07:56:27.973Z,30
2017-11-12T07:57:36.600Z,30
2017-11-12T07:58:45.217Z,30
2017-11-12T07:59:53.836Z,30
2017-11-12T08:01:02.460Z,30
2017-11-12T08:02:11.414Z,30
2017-11-12T08:03:20.031Z,30
2017-11-12T08:04:28.655Z,30
2017-11-12T08:05:37.278Z,25
2017-11-12T08:06:45.907Z,25
2017-11-12T08:07:54.860Z,25
2017-11-12T08:09:03.477Z,25
2017-11-12T08:10:12.105Z,25
2017-11-12T08:11:20.726Z,25
2017-11-12T08:12:29.341Z,25
2017-11-12T08:13:37.969Z,25
2017-11-12T08:14:46.589Z,25
2017-11-12T08:15:55.203Z,25
2017-11-12T08:17:03.829Z,25
2017-11-12T08:18:12.452Z,25
2017-11-12T08:19:21.072Z,25
2017-11-12T08:20:29.695Z,25
2017-11-12T08:21:38.307Z,30
2017-11-12T08:22:47.266Z,30
2017-11-12T08:23:55.891Z,35
2017-11-12T08:25:04.504Z,35
2017-11-12T08:26:13.130Z,40
2017-11-12T08:27:22.086Z,40
2017-11-12T08:28:30.705Z,40
2017-11-12T08:29:39.324Z,40
2017-11-12T08:30:47.952Z,40
2017-11-12T08:31:56.569Z,40
2017-11-12T08:33:05.192Z,45
2017-11-12T08:34:13.807Z,45
2017-11-12T08:35:22.427Z,45
2017-11-12T08:36:31.053Z,45
2017-11-12T08:37:39.677Z,45
2017-11-12T08:38:48.298Z,45
2017-11-12T08:39:56.925Z,40
2017-11-12T08:41:05.543Z,40
2017-11-12T08:42:14.170Z,45
2017-11-12T08:43:23.115Z,45
2017-11-12T08:44:31.781Z,45
2017-11-12T08:45:40.363Z,50
2017-11-12T08:46:48.981Z,50
2017-11-12T08:47:57.608Z,50
2017-11-12T08:49:06.223Z,45
2017-11-12T08:50:14.846Z,40
2017-11-12T08:51:23.468Z,35
2017-11-12T08:52:32.083Z,30
2017-11-12T08:53:40.706Z,30
2017-11-12T08:54:49.328Z,35
2017-11-12T08:55:58.285Z,30
2017-11-12T08:57:06.904Z,40
2017-11-12T08:58:15.535Z,40
2017-11-12T08:59:24.163Z,40
2017-11-12T09:00:33.113Z,45
2017-11-12T09:01:41.740Z,45
2017-11-12T09:02:50.358Z,45
2017-11-12T09:03:58.980Z,45
2017-11-12T09:05:07.933Z,50
2017-11-12T09:06:16.895Z,50
2017-11-12T09:07:25.523Z,50
2017-11-12T09:08:34.140Z,45
2017-11-12T09:09:42.760Z,45
2017-11-12T09:10:51.390Z,45
2017-11-12T09:12:00.009Z,45
2017-11-12T09:13:09.289Z,45
2017-11-12T09:14:17.914Z,45
2017-11-12T09:15:26.877Z,45
2017-11-12T09:16:35.827Z,45
2017-11-12T09:17:44.451Z,45
2017-11-12T09:18:53.073Z,45
2017-11-12T09:20:01.705Z,45
2017-11-12T09:21:10.330Z,45
2017-11-12T09:22:18.939Z,45
2017-11-12T09:23:27.564Z,50
2017-11-12T09:24:36.187Z,50
2017-11-12T09:25:44.800Z,50
2017-11-12T09:26:53.423Z,50
2017-11-12T09:28:02.046Z,50
2017-11-12T09:29:10.660Z,50
2017-11-12T09:30:19.290Z,50
2017-11-12T09:31:28.249Z,50
2017-11-12T09:32:36.869Z,50
2017-11-12T09:33:45.497Z,55
2017-11-12T09:34:54.109Z,55
2017-11-12T09:36:02.735Z,55
2017-11-12T09:37:11.356Z,55
2017-11-12T09:38:19.970Z,55
2017-11-12T09:39:28.600Z,55
2017-11-12T09:40:37.218Z,55
2017-11-12T09:41:45.841Z,60
2017-11-12T09:42:54.466Z,60
2017-11-12T09:44:03.081Z,65
2017-11-12T09:45:11.707Z,65
2017-11-12T09:46:20.333Z,65
2017-11-12T09:47:28.954Z,65
2017-11-12T09:48:37.577Z,65
2017-11-12T09:49:46.195Z,65
2017-11-12T09:50:54.823Z,70
2017-11-12T09:52:03.444Z,70
2017-11-12T09:53:12.060Z,75
2017-11-12T09:54:20.680Z,70
2017-11-12T09:55:29.305Z,65
2017-11-12T09:56:37.920Z,65
2017-11-12T09:57:46.886Z,65
2017-11-12T09:58:55.509Z,70
2017-11-12T10:00:04.131Z,70
2017-11-12T10:01:12.769Z,70
2017-11-12T10:02:21.716Z,70
2017-11-12T10:03:30.334Z,80
2017-11-12T10:04:38.958Z,85
2017-11-12T10:05:47.573Z,85
2017-11-12T10:06:56.195Z,80
2017-11-12T10:08:04.820Z,90
2017-11-12T10:09:13.777Z,95
2017-11-12T10:10:22.403Z,100
2017-11-12T10:11:31.020Z,105
2017-11-12T10:12:39.985Z,105
2017-11-12T10:13:48.611Z,105
2017-11-12T10:14:57.226Z,110
2017-11-12T10:16:05.856Z,110
2017-11-12T10:17:14.475Z,110
2017-11-12T10:18:23.100Z,100
2017-11-12T10:19:31.725Z,95
2017-11-12T10:20:40.343Z,90
2017-11-12T10:21:48.970Z,90
2017-11-12T10:22:57.924Z,95
2017-11-12T10:24:06.547Z,95
2017-11-12T10:25:15.179Z,90
2017-11-12T10:26:23.800Z,85
2017-11-12T10:27:32.418Z,85
2017-11-12T10:28:41.372Z,85
2017-11-12T10:29:50.004Z,80
2017-11-12T10:30:58.622Z,80
2017-11-12T10:32:07.246Z,75
2017-11-12T10:33:15.860Z,70
2017-11-12T10:34:24.485Z,70
2017-11-12T10:35:33.111Z,70
2017-11-12T10:36:41.731Z,70
2017-11-12T10:37:50.359Z,70
2017-11-12T10:38:59.304Z,70
2017-11-12T10:40:07.929Z,65
2017-11-12T10:41:16.552Z,65
2017-11-12T10:42:25.499Z,65
2017-11-12T10:43:34.130Z,70
2017-11-12T10:44:42.753Z,80
2017-11-12T10:45:51.377Z,85
2017-11-12T10:46:59.998Z,90
2017-11-12T10:48:08.613Z,85
2017-11-12T10:49:17.241Z,80
2017-11-12T10:50:25.866Z,80
2017-11-12T10:51:34.481Z,85
2017-11-12T10:52:43.103Z,95
2017-11-12T10:53:52.061Z,95
2017-11-12T10:55:00.683Z,100
2017-11-12T10:56:09.301Z,105
2017-11-12T10:57:17.933Z,110
2017-11-12T10:58:26.550Z,110
2017-11-12T10:59:35.174Z,115
2017-11-12T11:00:43.793Z,115
2017-11-12T11:01:52.423Z,115
2017-11-12T11:03:01.045Z,110
2017-11-12T11:04:09.667Z,110
2017-11-12T11:05:18.286Z,110
2017-11-12T11:06:27.244Z,105
2017-11-12T11:07:35.866Z,100
2017-11-12T11:08:44.493Z,100
2017-11-12T11:09:53.125Z,105
2017-11-12T11:11:01.747Z,110
2017-11-12T11:12:10.698Z,110
2017-11-12T11:13:19.323Z,110
2017-11-12T11:14:27.940Z,105
2017-11-12T11:15:36.567Z,100
2017-11-12T11:16:45.188Z,95
2017-11-12T11:17:53.806Z,95
2017-11-12T11:19:02.438Z,95
2017-11-12T11:20:11.424Z,100
2017-11-12T11:21:20.047Z,95
2017-11-12T11:22:28.671Z,95
2017-11-12T11:23:37.627Z,90
2017-11-12T11:24:46.248Z,85
2017-11-12T11:25:54.877Z,85
2017-11-12T11:27:03.502Z,85
2017-11-12T11:28:12.448Z,80
2017-11-12T11:29:21.080Z,75
2017-11-12T11:30:30.034Z,75
2017-11-12T11:31:38.656Z,75
2017-11-12T11:32:47.284Z,75
2017-11-12T11:33:55.903Z,75
2017-11-12T11:35:04.529Z,75
2017-11-12T11:36:13.149Z,75
2017-11-12T11:37:21.777Z,75
2017-11-12T11:38:30.397Z,75
2017-11-12T11:39:39.017Z,75
2017-11-12T11:40:47.643Z,75
2017-11-12T11:41:56.599Z,75
2017-11-12T11:43:05.214Z,80
2017-11-12T11:44:14.173Z,80
2017-11-12T11:45:22.793Z,85
2017-11-12T11:46:31.423Z,85
2017-11-12T11:47:40.041Z,90
2017-11-12T11:48:48.662Z,90
2017-11-12T11:49:57.287Z,90
2017-11-12T11:51:05.913Z,90
2017-11-12T11:52:14.531Z,90
2017-11-12T11:53:23.154Z,90
2017-11-12T11:54:31.779Z,85
2017-11-12T11:55:40.394Z,85
2017-11-12T11:56:49.028Z,90
2017-11-12T11:57:57.645Z,90
2017-11-12T11:59:06.270Z,90
2017-11-12T12:00:15.231Z,90
2017-11-12T12:01:23.850Z,85
2017-11-12T12:02:32.474Z,80
2017-11-12T12:03:41.101Z,75
2017-11-12T12:04:49.722Z,60
2017-11-12T12:05:58.343Z,50
2017-11-12T12:07:07.291Z,45
2017-11-12T12:08:15.913Z,45
2017-11-12T12:09:24.535Z,45
2017-11-12T12:10:33.166Z,50
2017-11-12T12:11:41.790Z,55
2017-11-12T12:12:50.418Z,55
2017-11-12T12:13:59.031Z,60
2017-11-12T12:15:07.658Z,60
2017-11-12T12:16:16.286Z,60
2017-11-12T12:17:24.907Z,60
2017-11-12T12:18:33.531Z,60
2017-11-12T12:19:42.161Z,60
2017-11-12T12:20:50.782Z,65
2017-11-12T12:21:59.410Z,70
2017-11-12T12:23:08.030Z,75
2017-11-12T12:24:16.652Z,75
2017-11-12T12:25:25.275Z,75
2017-11-12T12:26:33.900Z,75
2017-11-12T12:27:42.846Z,75
2017-11-12T12:28:51.480Z,80
2017-11-12T12:30:00.100Z,80
2017-11-12T12:31:08.727Z,85
2017-11-12T12:32:17.360Z,80
2017-11-12T12:33:25.978Z,80
2017-11-12T12:34:34.598Z,80
2017-11-12T12:35:43.221Z,80
2017-11-12T12:36:51.841Z,85
2017-11-12T12:38:00.472Z,95
2017-11-12T12:39:09.092Z,95
2017-11-12T12:40:17.713Z,95
2017-11-12T12:41:26.346Z,90
2017-11-12T12:42:34.959Z,85
2017-11-12T12:43:43.583Z,90
2017-11-12T12:44:52.204Z,90
2017-11-12T12:46:00.825Z,90
2017-11-12T12:47:09.456Z,95
2017-11-12T12:48:18.080Z,100
2017-11-12T12:49:26.702Z,95
2017-11-12T12:50:35.328Z,90
2017-11-12T12:51:43.951Z,90
2017-11-12T12:52:52.577Z,95
2017-11-12T12:54:01.204Z,100
2017-11-12T12:55:09.826Z,110
2017-11-12T12:56:18.442Z,115
2017-11-12T12:57:27.073Z,125
2017-11-12T12:58:35.686Z,125
2017-11-12T12:59:44.319Z,130
2017-11-12T13:00:52.938Z,110
2017-11-12T13:02:01.558Z,85
2017-11-12T13:03:10.180Z,85
2017-11-12T13:04:18.805Z,90
2017-11-12T13:05:27.421Z,95
2017-11-12T13:06:36.047Z,115
2017-11-12T13:07:45.006Z,115
2017-11-12T13:08:53.622Z,120
2017-11-12T13:10:02.245Z,130
2017-11-12T13:11:10.873Z,140
2017-11-12T13:12:19.496Z,150
2017-11-12T13:13:28.123Z,160
2017-11-12T13:14:36.744Z,165
2017-11-12T13:15:45.370Z,160
2017-11-12T13:16:53.996Z,160
2017-11-12T13:18:02.616Z,155
2017-11-12T13:19:11.245Z,150
2017-11-12T13:20:19.866Z,140
2017-11-12T13:21:28.489Z,140
2017-11-12T13:22:37.776Z,140
2017-11-12T13:23:46.406Z,135
2017-11-12T13:24:55.028Z,135
2017-11-12T13:26:03.653Z,130
2017-11-12T13:27:12.270Z,120
2017-11-12T13:28:20.899Z,120
2017-11-12T13:29:29.529Z,110
2017-11-12T13:30:38.489Z,100
2017-11-12T13:31:47.440Z,105
2017-11-12T13:32:56.071Z,100
2017-11-12T13:34:04.692Z,85
2017-11-12T13:35:13.320Z,80
2017-11-12T13:36:21.937Z,75
2017-11-12T13:37:30.564Z,75
2017-11-12T13:38:39.191Z,70
2017-11-12T13:39:48.137Z,70
2017-11-12T13:40:56.769Z,80
2017-11-12T13:42:05.384Z,85
2017-11-12T13:43:14.016Z,75
2017-11-12T13:44:22.642Z,75
2017-11-12T13:45:31.260Z,70
2017-11-12T13:46:39.887Z,75
2017-11-12T13:47:48.511Z,80
2017-11-12T13:48:57.137Z,75
2017-11-12T13:50:05.757Z,65
2017-11-12T13:51:14.387Z,55
2017-11-12T13:52:23.010Z,50
2017-11-12T13:53:31.632Z,40
2017-11-12T13:54:40.267Z,40
2017-11-12T13:55:49.212Z,40
2017-11-12T13:56:57.837Z,45
2017-11-12T13:58:06.459Z,40
2017-11-12T13:59:15.083Z,50
2017-11-12T14:00:23.716Z,60
2017-11-12T14:01:32.668Z,65
2017-11-12T14:02:41.295Z,65
2017-11-12T14:03:50.243Z,65
2017-11-12T14:04:58.870Z,60
2017-11-12T14:06:07.496Z,50
2017-11-12T14:07:16.116Z,60
2017-11-12T14:08:24.737Z,70
2017-11-12T14:09:33.367Z,75
2017-11-12T14:10:41.988Z,75
2017-11-12T14:11:50.618Z,75
2017-11-12T14:12:59.236Z,80
2017-11-12T14:14:07.863Z,70
2017-11-12T14:15:16.488Z,65
2017-11-12T14:16:25.108Z,60
2017-11-12T14:17:34.069Z,65
2017-11-12T14:18:43.029Z,65
2017-11-12T14:19:51.652Z,60
2017-11-12T14:21:00.275Z,55
2017-11-12T14:22:08.925Z,40
2017-11-12T14:23:17.528Z,30
2017-11-12T14:24:26.150Z,25
2017-11-12T14:25:34.773Z,35
2017-11-12T14:26:43.395Z,40
2017-11-12T14:27:52.029Z,40
2017-11-12T14:29:00.646Z,40
2017-11-12T14:30:09.269Z,40
2017-11-12T14:31:17.902Z,35
2017-11-12T14:32:26.519Z,30
2017-11-12T14:33:35.147Z,25
2017-11-12T14:34:43.768Z,25
2017-11-12T14:35:52.391Z,25
2017-11-12T14:37:01.022Z,25
2017-11-12T14:38:09.642Z,20
2017-11-12T14:39:18.266Z,20
2017-11-12T14:40:26.883Z,20
2017-11-12T14:41:35.509Z,20
2017-11-12T14:42:44.136Z,25
2017-11-12T14:43:52.759Z,25
2017-11-12T14:45:01.379Z,25
2017-11-12T14:46:10.009Z,20
2017-11-12T14:47:18.633Z,20
2017-11-12T14:48:27.251Z,20
2017-11-12T14:49:35.881Z,20
2017-11-12T14:50:44.504Z,20
2017-11-12T14:51:53.125Z,20
2017-11-12T14:53:01.750Z,20
2017-11-12T14:54:10.367Z,20
2017-11-12T14:55:18.998Z,20
2017-11-12T14:56:27.617Z,20
2017-11-12T14:57:36.240Z,20
2017-11-12T14:58:44.867Z,15
2017-11-12T14:59:54.156Z,15
2017-11-12T15:01:02.777Z,15
2017-11-12T15:02:11.404Z,10
2017-11-12T15:03:20.030Z,10
2017-11-12T15:04:28.646Z,10
2017-11-12T15:05:37.271Z,10
2017-11-12T15:06:45.901Z,10
2017-11-12T15:07:54.523Z,10
2017-11-12T15:09:03.153Z,10
2017-11-12T15:10:11.773Z,10
2017-11-12T15:11:20.404Z,10
2017-11-12T15:12:29.022Z,10
2017-11-12T15:13:37.639Z,10
2017-11-12T15:14:46.265Z,15
2017-11-12T15:15:54.890Z,15
2017-11-12T15:17:03.506Z,15
2017-11-12T15:18:12.132Z,15
2017-11-12T15:19:20.758Z,15
2017-11-12T15:20:29.383Z,10
2017-11-12T15:21:38.352Z,10
2017-11-12T15:22:47.321Z,10
2017-11-12T15:23:55.939Z,5
2017-11-12T15:25:04.568Z,5
2017-11-12T15:26:13.515Z,5
2017-11-12T15:27:22.141Z,5
2017-11-12T15:28:30.765Z,5
2017-11-12T15:29:39.383Z,5
2017-11-12T15:30:48.015Z,5
2017-11-12T15:31:56.630Z,5
2017-11-12T15:33:05.256Z,5
2017-11-12T15:34:13.910Z,5
2017-11-12T15:35:22.499Z,5
2017-11-12T15:36:31.127Z,5
2017-11-12T15:37:39.752Z,5
2017-11-12T15:38:48.380Z,0
2017-11-12T15:39:57.003Z,0
2017-11-12T15:41:05.616Z,0
2017-11-12T15:42:14.242Z,0
2017-11-12T15:43:22.868Z,0
2017-11-12T15:44:31.816Z,0
2017-11-12T15:45:40.441Z,0
2017-11-12T15:46:49.065Z,0
2017-11-12T15:47:57.686Z,0
2017-11-12T15:49:06.304Z,0
2017-11-12T15:50:15.290Z,0
2017-11-12T15:51:24.239Z,0
2017-11-12T15:52:32.861Z,0
2017-11-12T15:53:41.478Z,0
2017-11-12T15:54:50.106Z,0
2017-11-12T15:55:58.731Z,0
2017-11-12T15:57:07.353Z,0
2017-11-12T15:58:15.973Z,0
2017-11-12T15:59:24.599Z,0
2017-11-12T16:00:33.223Z,0
2017-11-12T16:01:41.846Z,0
2017-11-12T16:02:50.477Z,0
2017-11-12T16:03:59.099Z,0
2017-11-12T16:05:07.726Z,0
2017-11-12T16:06:16.680Z,0
2017-11-12T16:07:25.622Z,0
2017-11-12T16:08:34.253Z,0
2017-11-12T16:09:42.875Z,0
2017-11-12T16:10:51.494Z,0
2017-11-12T16:12:00.125Z,0
2017-11-12T16:13:08.744Z,0
2017-11-12T16:14:17.369Z,0
2017-11-12T16:15:25.988Z,0
2017-11-12T16:16:34.610Z,0
2017-11-12T16:17:43.226Z,0
2017-11-12T16:18:52.180Z,0
2017-11-12T16:20:00.806Z,0
2017-11-12T16:21:09.421Z,0
2017-11-12T16:22:18.054Z,0
2017-11-12T16:23:26.675Z,0
2017-11-12T16:24:35.303Z,0
2017-11-12T16:25:44.265Z,0
2017-11-12T16:26:52.881Z,0
2017-11-12T16:28:01.508Z,0
2017-11-12T16:29:10.483Z,0
2017-11-12T16:30:19.110Z,0
2017-11-12T16:31:27.733Z,0
2017-11-12T16:32:36.353Z,0
2017-11-12T16:33:44.977Z,0
2017-11-12T16:34:53.601Z,0